createdAt,value
2023-05-17T00:00:00.628Z,968.8
2023-05-17T00:01:00.626Z,968.8
2023-05-17T00:02:00.636Z,968.8
2023-05-17T00:03:00.772Z,968.8
2023-05-17T00:04:00.677Z,968.6
2023-05-17T00:05:00.679Z,968.8
2023-05-17T00:06:00.677Z,968.8
2023-05-17T00:07:00.644Z,968.8
2023-05-17T00:08:00.644Z,968.8
2023-05-17T00:09:00.643Z,969
2023-05-17T00:10:00.662Z,969
2023-05-17T00:11:00.664Z,969
2023-05-17T00:12:00.641Z,969.3
2023-05-17T00:13:00.641Z,968.8
2023-05-17T00:14:00.654Z,968.4
2023-05-17T00:15:00.665Z,968.4
2023-05-17T00:16:00.644Z,968.8
2023-05-17T00:17:00.662Z,969.3
2023-05-17T00:18:00.739Z,968.6
2023-05-17T00:19:00.794Z,968.8
2023-05-17T00:20:00.639Z,968.6
2023-05-17T00:21:00.661Z,968.6
2023-05-17T00:22:00.675Z,968.4
2023-05-17T00:23:00.662Z,968.4
2023-05-17T00:24:00.673Z,968.6
2023-05-17T00:25:00.695Z,968.6
2023-05-17T00:26:00.657Z,968.6
2023-05-17T00:27:00.650Z,968.8
2023-05-17T00:28:00.685Z,968.8
2023-05-17T00:29:00.665Z,968.6
2023-05-17T00:30:00.693Z,968.8
2023-05-17T00:31:00.665Z,968.8
2023-05-17T00:32:00.673Z,968.6
2023-05-17T00:33:00.747Z,968.8
2023-05-17T00:34:00.686Z,968.4
2023-05-17T00:35:00.762Z,968.6
2023-05-17T00:36:00.696Z,968.8
2023-05-17T00:37:00.667Z,968.4
2023-05-17T00:38:00.671Z,968.4
2023-05-17T00:39:00.676Z,968.4
2023-05-17T00:40:00.675Z,968.4
2023-05-17T00:41:00.690Z,968.4
2023-05-17T00:42:00.671Z,968.8
2023-05-17T00:43:00.709Z,968.8
2023-05-17T00:44:00.710Z,968.8
2023-05-17T00:45:00.668Z,968.4
2023-05-17T00:46:00.708Z,968.6
2023-05-17T00:47:00.677Z,968.8
2023-05-17T00:48:00.765Z,968.8
2023-05-17T00:49:00.674Z,968.8
2023-05-17T00:50:00.697Z,968.8
2023-05-17T00:51:00.678Z,968.8
2023-05-17T00:52:00.675Z,968.6
2023-05-17T00:53:00.691Z,968.6
2023-05-17T00:54:00.704Z,968.8
2023-05-17T00:55:00.689Z,968.4
2023-05-17T00:56:00.708Z,968.8
2023-05-17T00:57:00.690Z,969.3
2023-05-17T00:58:00.716Z,969
2023-05-17T00:59:00.691Z,968.8
2023-05-17T01:00:00.725Z,969
2023-05-17T01:01:00.701Z,969.3
2023-05-17T01:02:00.687Z,968.8
2023-05-17T01:03:00.838Z,968.8
2023-05-17T01:04:00.798Z,969.3
2023-05-17T01:05:00.954Z,969.3
2023-05-17T01:06:00.702Z,968.8
2023-05-17T01:07:00.738Z,968.6
2023-05-17T01:08:00.717Z,969
2023-05-17T01:09:00.694Z,968.8
2023-05-17T01:10:00.697Z,969
2023-05-17T01:11:00.725Z,969
2023-05-17T01:12:00.768Z,969
2023-05-17T01:13:00.702Z,968.8
2023-05-17T01:14:00.706Z,968.8
2023-05-17T01:15:00.704Z,969.3
2023-05-17T01:16:00.700Z,968.8
2023-05-17T01:17:00.732Z,969
2023-05-17T01:18:00.903Z,968.8
2023-05-17T01:19:00.714Z,968.8
2023-05-17T01:20:00.815Z,969
2023-05-17T01:21:00.596Z,968.8
2023-05-17T01:22:00.563Z,968.8
2023-05-17T01:23:00.527Z,968.8
2023-05-17T01:24:00.504Z,968.8
2023-05-17T01:25:00.509Z,968.8
2023-05-17T01:26:00.477Z,968.8
2023-05-17T01:27:00.449Z,968.8
2023-05-17T01:28:00.433Z,969
2023-05-17T01:29:00.395Z,969
2023-05-17T01:30:00.463Z,968.8
2023-05-17T01:31:00.353Z,968.8
2023-05-17T01:32:00.363Z,968.8
2023-05-17T01:33:00.381Z,969.3
2023-05-17T01:34:00.514Z,968.8
2023-05-17T01:35:00.371Z,968.8
2023-05-17T01:36:00.349Z,968.8
2023-05-17T01:37:00.374Z,968.8
2023-05-17T01:38:00.382Z,968.8
2023-05-17T01:39:00.349Z,968.8
2023-05-17T01:40:00.368Z,968.8
2023-05-17T01:41:00.385Z,969
2023-05-17T01:42:00.353Z,969
2023-05-17T01:43:00.364Z,969.3
2023-05-17T01:44:00.399Z,968.8
2023-05-17T01:45:00.370Z,969.3
2023-05-17T01:46:00.361Z,969.3
2023-05-17T01:47:00.391Z,969.3
2023-05-17T01:48:00.424Z,969
2023-05-17T01:49:00.444Z,969
2023-05-17T01:50:00.397Z,969
2023-05-17T01:51:00.368Z,969.3
2023-05-17T01:52:00.365Z,969.3
2023-05-17T01:53:00.370Z,969.3
2023-05-17T01:54:00.400Z,969.3
2023-05-17T01:55:00.402Z,969.5
2023-05-17T01:56:00.368Z,969.3
2023-05-17T01:57:00.369Z,969.3
2023-05-17T01:58:00.386Z,968.8
2023-05-17T01:59:00.378Z,969.3
2023-05-17T02:00:00.469Z,969.3
2023-05-17T02:01:02.351Z,969
2023-05-17T02:02:02.351Z,969
2023-05-17T02:03:02.363Z,969
2023-05-17T02:04:02.413Z,968.8
2023-05-17T02:05:02.373Z,969
2023-05-17T02:06:02.358Z,969
2023-05-17T02:07:02.350Z,969.3
2023-05-17T02:08:02.393Z,969.3
2023-05-17T02:09:02.350Z,969.3
2023-05-17T02:10:02.378Z,969.3
2023-05-17T02:11:02.396Z,969
2023-05-17T02:12:02.364Z,969.3
2023-05-17T02:13:02.363Z,969.3
2023-05-17T02:14:02.366Z,969.3
2023-05-17T02:15:02.376Z,969.7
2023-05-17T02:16:02.373Z,969
2023-05-17T02:17:02.368Z,968.8
2023-05-17T02:18:02.570Z,969
2023-05-17T02:19:02.454Z,969.3
2023-05-17T02:20:02.407Z,969.3
2023-05-17T02:21:02.369Z,969
2023-05-17T02:22:02.373Z,969.3
2023-05-17T02:23:02.418Z,969.3
2023-05-17T02:24:02.380Z,969.3
2023-05-17T02:25:02.389Z,969.3
2023-05-17T02:26:02.374Z,969.3
2023-05-17T02:27:02.381Z,969.7
2023-05-17T02:28:02.388Z,969.3
2023-05-17T02:29:02.398Z,969.3
2023-05-17T02:30:02.650Z,969.3
2023-05-17T02:31:02.388Z,969.3
2023-05-17T02:32:02.381Z,969.5
2023-05-17T02:33:02.423Z,969.3
2023-05-17T02:34:02.418Z,969.3
2023-05-17T02:35:02.409Z,969.3
2023-05-17T02:36:02.393Z,969.3
2023-05-17T02:37:02.398Z,969.3
2023-05-17T02:38:02.382Z,969.3
2023-05-17T02:39:02.380Z,969.3
2023-05-17T02:40:02.503Z,969.3
2023-05-17T02:41:02.397Z,969.3
2023-05-17T02:42:02.394Z,969.3
2023-05-17T02:43:02.394Z,969.3
2023-05-17T02:44:02.398Z,969.3
2023-05-17T02:45:02.400Z,969.3
2023-05-17T02:46:02.401Z,969.5
2023-05-17T02:47:02.467Z,969.7
2023-05-17T02:48:02.478Z,969.3
2023-05-17T02:49:02.414Z,969.5
2023-05-17T02:50:02.464Z,969.3
2023-05-17T02:51:02.447Z,969.7
2023-05-17T02:52:02.420Z,969.3
2023-05-17T02:53:02.405Z,969.5
2023-05-17T02:54:02.423Z,969.7
2023-05-17T02:55:02.443Z,969.3
2023-05-17T02:56:02.467Z,969.3
2023-05-17T02:57:02.414Z,969.3
2023-05-17T02:58:02.424Z,969.5
2023-05-17T02:59:02.452Z,969.7
2023-05-17T03:00:02.600Z,969.5
2023-05-17T03:01:02.408Z,969.3
2023-05-17T03:02:02.454Z,969.5
2023-05-17T03:03:02.542Z,969.3
2023-05-17T03:04:02.546Z,969.7
2023-05-17T03:05:02.428Z,969.7
2023-05-17T03:06:02.418Z,969.7
2023-05-17T03:07:03.090Z,969.7
2023-05-17T03:08:02.435Z,969.9
2023-05-17T03:09:02.430Z,969.7
2023-05-17T03:10:02.455Z,969.7
2023-05-17T03:11:02.438Z,969.7
2023-05-17T03:12:02.415Z,969.7
2023-05-17T03:13:02.427Z,969.7
2023-05-17T03:14:02.464Z,969.3
2023-05-17T03:15:02.460Z,969.7
2023-05-17T03:16:02.486Z,970.1
2023-05-17T03:17:02.518Z,970.1
2023-05-17T03:18:02.486Z,970.1
2023-05-17T03:19:02.715Z,970.1
2023-05-17T03:20:02.501Z,970.1
2023-05-17T03:21:02.488Z,969.9
2023-05-17T03:22:02.477Z,970.1
2023-05-17T03:23:02.437Z,969.9
2023-05-17T03:24:02.465Z,970.1
2023-05-17T03:25:02.560Z,970.1
2023-05-17T03:26:02.465Z,970.1
2023-05-17T03:27:02.465Z,969.7
2023-05-17T03:28:02.457Z,969.7
2023-05-17T03:29:02.496Z,969.9
2023-05-17T03:30:02.555Z,970.1
2023-05-17T03:31:02.532Z,969.9
2023-05-17T03:32:02.466Z,970.1
2023-05-17T03:33:02.531Z,969.7
2023-05-17T03:34:02.656Z,969.9
2023-05-17T03:35:02.456Z,969.9
2023-05-17T03:36:02.452Z,969.9
2023-05-17T03:37:02.463Z,969.7
2023-05-17T03:38:02.450Z,970.1
2023-05-17T03:39:02.519Z,970.1
2023-05-17T03:40:02.517Z,970.1
2023-05-17T03:41:02.469Z,970.1
2023-05-17T03:42:02.458Z,969.9
2023-05-17T03:43:02.512Z,969.7
2023-05-17T03:44:02.520Z,970.1
2023-05-17T03:45:02.465Z,969.9
2023-05-17T03:46:02.485Z,969.7
2023-05-17T03:47:02.465Z,970.1
2023-05-17T03:48:02.528Z,970.1
2023-05-17T03:49:02.566Z,969.7
2023-05-17T03:50:02.547Z,970.1
2023-05-17T03:51:02.472Z,970.1
2023-05-17T03:52:02.471Z,970.1
2023-05-17T03:53:02.460Z,970.1
2023-05-17T03:54:02.469Z,969.9
2023-05-17T03:55:02.473Z,969.9
2023-05-17T03:56:02.478Z,969.7
2023-05-17T03:57:02.465Z,969.7
2023-05-17T03:58:02.506Z,970.1
2023-05-17T03:59:02.511Z,970.1
2023-05-17T04:00:02.508Z,969.9
2023-05-17T04:01:02.483Z,969.7
2023-05-17T04:02:02.487Z,970.1
2023-05-17T04:03:02.547Z,970.1
2023-05-17T04:04:02.507Z,970.1
2023-05-17T04:05:02.641Z,969.7
2023-05-17T04:06:02.486Z,969.7
2023-05-17T04:07:02.478Z,970.1
2023-05-17T04:08:02.487Z,970.1
2023-05-17T04:09:02.497Z,969.9
2023-05-17T04:10:02.506Z,969.7
2023-05-17T04:11:02.479Z,970.4
2023-05-17T04:12:02.492Z,970.1
2023-05-17T04:13:02.498Z,970.1
2023-05-17T04:14:02.509Z,970.1
2023-05-17T04:15:02.485Z,969.9
2023-05-17T04:16:02.485Z,969.7
2023-05-17T04:17:02.511Z,969.9
2023-05-17T04:18:02.559Z,969.7
2023-05-17T04:19:02.592Z,969.7
2023-05-17T04:20:02.519Z,969.7
2023-05-17T04:21:02.489Z,969.7
2023-05-17T04:22:02.522Z,969.7
2023-05-17T04:23:02.510Z,969.7
2023-05-17T04:24:02.495Z,970.1
2023-05-17T04:25:02.520Z,969.9
2023-05-17T04:26:02.500Z,970.1
2023-05-17T04:27:03.636Z,970.1
2023-05-17T04:28:02.526Z,969.9
2023-05-17T04:29:02.520Z,970.1
2023-05-17T04:30:02.519Z,970.1
2023-05-17T04:31:02.521Z,969.9
2023-05-17T04:32:02.530Z,969.9
2023-05-17T04:33:02.643Z,969.7
2023-05-17T04:34:02.662Z,969.7
2023-05-17T04:35:02.515Z,969.5
2023-05-17T04:36:02.526Z,969.7
2023-05-17T04:37:02.518Z,969.7
2023-05-17T04:38:02.521Z,969.9
2023-05-17T04:39:02.523Z,969.7
2023-05-17T04:40:02.579Z,969.7
2023-05-17T04:41:02.506Z,969.3
2023-05-17T04:42:02.512Z,969.3
2023-05-17T04:43:02.521Z,969.5
2023-05-17T04:44:02.542Z,969.7
2023-05-17T04:45:02.540Z,969.5
2023-05-17T04:46:02.524Z,969.7
2023-05-17T04:47:02.527Z,969.3
2023-05-17T04:48:02.638Z,969.7
2023-05-17T04:49:02.596Z,969.7
2023-05-17T04:50:02.524Z,969.7
2023-05-17T04:51:02.523Z,969
2023-05-17T04:52:05.304Z,969.3
2023-05-17T04:53:02.555Z,969.3
2023-05-17T04:54:02.531Z,969.3
2023-05-17T04:55:02.538Z,969.3
2023-05-17T04:56:02.523Z,969.3
2023-05-17T04:57:02.532Z,969.3
2023-05-17T04:58:02.560Z,969.7
2023-05-17T04:59:02.594Z,969.7
2023-05-17T05:00:02.546Z,969.7
2023-05-17T05:01:02.562Z,969.7
2023-05-17T05:02:02.556Z,969.5
2023-05-17T05:03:02.562Z,969.7
2023-05-17T05:04:02.687Z,969.7
2023-05-17T05:05:02.666Z,969.7
2023-05-17T05:06:02.537Z,970.1
2023-05-17T05:07:02.576Z,970.1
2023-05-17T05:08:02.559Z,970.1
2023-05-17T05:09:02.549Z,969.9
2023-05-17T05:10:02.607Z,970.1
2023-05-17T05:11:02.566Z,970.1
2023-05-17T05:12:02.563Z,970.1
2023-05-17T05:13:02.577Z,970.1
2023-05-17T05:14:02.551Z,970.1
2023-05-17T05:15:02.553Z,970.1
2023-05-17T05:16:02.558Z,970.1
2023-05-17T05:17:02.560Z,970.1
2023-05-17T05:18:02.632Z,970.1
2023-05-17T05:19:02.969Z,969.9
2023-05-17T05:20:02.629Z,970.1
2023-05-17T05:21:02.582Z,969.9
2023-05-17T05:22:02.594Z,969.7
2023-05-17T05:23:02.593Z,970.1
2023-05-17T05:24:02.569Z,969.9
2023-05-17T05:25:02.569Z,969.9
2023-05-17T05:26:02.563Z,969.7
2023-05-17T05:27:03.861Z,969.7
2023-05-17T05:28:02.576Z,969.7
2023-05-17T05:29:02.572Z,969.5
2023-05-17T05:30:02.582Z,969
2023-05-17T05:31:02.550Z,969.5
2023-05-17T05:32:02.594Z,969.7
2023-05-17T05:33:02.666Z,969.5
2023-05-17T05:34:02.734Z,969.7
2023-05-17T05:35:02.574Z,969.5
2023-05-17T05:36:02.591Z,969
2023-05-17T05:37:02.578Z,968.8
2023-05-17T05:38:02.561Z,968.8
2023-05-17T05:39:02.618Z,968.8
2023-05-17T05:40:02.608Z,969
2023-05-17T05:41:02.588Z,968.8
2023-05-17T05:42:02.597Z,969
2023-05-17T05:43:02.689Z,968.4
2023-05-17T05:44:02.617Z,968.6
2023-05-17T05:45:02.743Z,969.3
2023-05-17T05:46:02.589Z,969.3
2023-05-17T05:47:02.660Z,968.6
2023-05-17T05:48:02.804Z,968.8
2023-05-17T05:49:02.780Z,968.8
2023-05-17T05:50:02.645Z,968.8
2023-05-17T05:51:02.609Z,968.8
2023-05-17T05:52:02.603Z,968.8
2023-05-17T05:54:02.635Z,968.4
2023-05-17T05:55:02.614Z,968.6
2023-05-17T05:56:02.602Z,968.4
2023-05-17T05:57:02.624Z,968.4
2023-05-17T05:58:02.738Z,968.4
2023-05-17T05:59:02.620Z,968
2023-05-17T06:00:02.617Z,968
2023-05-17T06:01:05.465Z,967.5
2023-05-17T06:02:02.638Z,967.5
2023-05-17T06:03:02.745Z,968
2023-05-17T06:04:02.633Z,967.5
2023-05-17T06:05:02.636Z,967.5
2023-05-17T06:06:02.816Z,967.5
2023-05-17T06:07:02.668Z,967.5
2023-05-17T06:08:02.607Z,968
2023-05-17T06:09:02.605Z,968
2023-05-17T06:10:02.664Z,968
2023-05-17T06:11:02.684Z,967.7
2023-05-17T06:12:02.667Z,967.5
2023-05-17T06:13:02.645Z,967.5
2023-05-17T06:14:02.631Z,967.5
2023-05-17T06:15:02.765Z,967.5
2023-05-17T06:16:02.667Z,967.1
2023-05-17T06:17:02.653Z,967.1
2023-05-17T06:18:02.739Z,967.5
2023-05-17T06:19:02.789Z,967.1
2023-05-17T06:20:02.702Z,966.7
2023-05-17T06:21:02.669Z,967.1
2023-05-17T06:22:02.664Z,966.7
2023-05-17T06:23:02.658Z,966.7
2023-05-17T06:24:05.041Z,966.7
2023-05-17T06:25:02.768Z,966.7
2023-05-17T06:26:02.685Z,966.7
2023-05-17T06:27:02.766Z,966.4
2023-05-17T06:28:02.691Z,966.2
2023-05-17T06:29:02.670Z,965.8
2023-05-17T06:30:08.002Z,965.6
2023-05-17T06:31:02.752Z,965.6
2023-05-17T06:32:02.851Z,965.4
2023-05-17T06:33:02.760Z,965.4
2023-05-17T06:34:02.777Z,965.4
2023-05-17T06:35:02.679Z,965.8
2023-05-17T06:37:02.707Z,964.9
2023-05-17T06:38:02.646Z,964.7
2023-05-17T06:39:02.655Z,965.4
2023-05-17T06:40:10.109Z,964.9
2023-05-17T06:41:02.709Z,965.1
2023-05-17T06:42:02.672Z,964.9
2023-05-17T06:43:02.870Z,965.4
2023-05-17T06:44:02.660Z,965.1
2023-05-17T06:45:02.709Z,964.9
2023-05-17T06:46:02.693Z,964.5
2023-05-17T06:47:02.727Z,964.9
2023-05-17T06:48:02.765Z,965.1
2023-05-17T06:49:02.800Z,965.4
2023-05-17T06:50:02.716Z,964.9
2023-05-17T06:51:02.760Z,964.7
2023-05-17T06:52:02.682Z,964
2023-05-17T06:53:02.805Z,963.6
2023-05-17T06:54:02.699Z,963.6
2023-05-17T06:55:02.641Z,963.8
2023-05-17T06:56:02.651Z,963.6
2023-05-17T06:57:02.668Z,963.6
2023-05-17T06:58:02.707Z,964.5
2023-05-17T06:59:02.665Z,964
2023-05-17T07:00:02.701Z,964.5
2023-05-17T07:01:02.683Z,964
2023-05-17T07:02:02.678Z,964.5
2023-05-17T07:03:02.744Z,964.5
2023-05-17T07:04:02.740Z,963.6
2023-05-17T07:05:02.782Z,964
2023-05-17T07:06:02.690Z,963.6
2023-05-17T07:07:03.051Z,964
2023-05-17T07:08:02.689Z,963.6
2023-05-17T07:09:02.716Z,963.8
2023-05-17T07:10:02.728Z,964.5
2023-05-17T07:11:02.687Z,964.9
2023-05-17T07:12:02.678Z,964.7
2023-05-17T07:13:02.684Z,964.5
2023-05-17T07:14:02.676Z,964.5
2023-05-17T07:15:02.730Z,963.6
2023-05-17T07:16:02.680Z,963.8
2023-05-17T07:17:02.694Z,963.6
2023-05-17T07:18:02.829Z,964.5
2023-05-17T07:19:00.502Z,964
2023-05-17T07:20:00.484Z,963.8
2023-05-17T07:21:00.406Z,963.4
2023-05-17T07:22:00.418Z,963
2023-05-17T07:23:00.397Z,964
2023-05-17T07:24:00.449Z,962.5
2023-05-17T07:25:00.443Z,963
2023-05-17T07:26:00.429Z,962.7
2023-05-17T07:27:00.426Z,962.7
2023-05-17T07:28:00.413Z,963.6
2023-05-17T07:29:00.421Z,963.6
2023-05-17T07:30:00.449Z,963.6
2023-05-17T07:31:00.455Z,963.2
2023-05-17T07:32:00.414Z,963.2
2023-05-17T07:33:00.468Z,962.7
2023-05-17T07:34:00.448Z,962.3
2023-05-17T07:35:00.474Z,962.3
2023-05-17T07:36:00.455Z,961.4
2023-05-17T07:37:00.436Z,961.4
2023-05-17T07:38:00.440Z,961.7
2023-05-17T07:39:00.428Z,961.9
2023-05-17T07:40:00.446Z,961.4
2023-05-17T07:41:00.432Z,961.4
2023-05-17T07:42:02.834Z,961
2023-05-17T07:43:00.456Z,960.8
2023-05-17T07:44:00.428Z,961.4
2023-05-17T07:45:00.513Z,961.4
2023-05-17T07:46:00.422Z,960.8
2023-05-17T07:47:00.587Z,961.2
2023-05-17T07:48:01.612Z,961.9
2023-05-17T07:49:00.517Z,961.9
2023-05-17T07:50:00.472Z,960.1
2023-05-17T07:51:00.447Z,960.1
2023-05-17T07:52:00.467Z,959.9
2023-05-17T07:53:00.438Z,959.9
2023-05-17T07:54:00.449Z,959.5
2023-05-17T07:55:00.485Z,960.1
2023-05-17T07:56:00.436Z,959.7
2023-05-17T07:57:00.459Z,960.4
2023-05-17T07:58:00.435Z,960.1
2023-05-17T07:59:00.436Z,959.7
2023-05-17T08:00:00.543Z,959.3
2023-05-17T08:01:00.443Z,958.4
2023-05-17T08:02:00.457Z,961
2023-05-17T08:03:00.508Z,959.7
2023-05-17T08:04:00.492Z,960.1
2023-05-17T08:05:00.555Z,959.7
2023-05-17T08:06:00.472Z,960.1
2023-05-17T08:07:00.480Z,959.7
2023-05-17T08:08:00.452Z,959.9
2023-05-17T08:09:00.445Z,960.1
2023-05-17T08:10:00.477Z,959.9
2023-05-17T08:11:00.469Z,959.7
2023-05-17T08:12:00.487Z,958.6
2023-05-17T08:13:00.465Z,958.2
2023-05-17T08:14:00.473Z,959.3
2023-05-17T08:15:00.461Z,958.6
2023-05-17T08:16:08.862Z,958.2
2023-05-17T08:17:00.463Z,958.4
2023-05-17T08:18:02.943Z,957.7
2023-05-17T08:19:00.646Z,958.4
2023-05-17T08:20:00.592Z,957.5
2023-05-17T08:21:00.516Z,958
2023-05-17T08:22:00.476Z,957.5
2023-05-17T08:23:00.498Z,956.7
2023-05-17T08:24:03.342Z,956.4
2023-05-17T08:25:00.497Z,957.1
2023-05-17T08:26:00.486Z,956.4
2023-05-17T08:27:00.570Z,956.7
2023-05-17T08:28:00.468Z,956.2
2023-05-17T08:29:00.534Z,956.7
2023-05-17T08:30:00.532Z,956.4
2023-05-17T08:31:00.477Z,957.5
2023-05-17T08:32:00.519Z,956.7
2023-05-17T08:33:00.705Z,957.5
2023-05-17T08:34:00.580Z,957.1
2023-05-17T08:35:00.502Z,956.2
2023-05-17T08:36:00.541Z,956.7
2023-05-17T08:37:00.497Z,956.4
2023-05-17T08:38:00.537Z,956.7
2023-05-17T08:39:00.488Z,954.7
2023-05-17T08:40:00.660Z,954.3
2023-05-17T08:41:00.590Z,954.5
2023-05-17T08:42:00.497Z,955.4
2023-05-17T08:43:00.486Z,954.9
2023-05-17T08:44:00.485Z,954.9
2023-05-17T08:45:00.481Z,955.4
2023-05-17T08:46:00.525Z,953.8
2023-05-17T08:47:00.522Z,955.6
2023-05-17T08:48:00.538Z,955.8
2023-05-17T08:49:00.616Z,955.8
2023-05-17T08:50:00.720Z,956
2023-05-17T08:51:00.491Z,954.9
2023-05-17T08:52:00.496Z,955.1
2023-05-17T08:53:00.532Z,956.2
2023-05-17T08:54:00.532Z,954.9
2023-05-17T08:55:00.516Z,954.5
2023-05-17T08:56:00.518Z,954.5
2023-05-17T08:57:00.545Z,955.4
2023-05-17T08:58:00.504Z,955.1
2023-05-17T08:59:00.507Z,954.5
2023-05-17T09:00:00.579Z,952.7
2023-05-17T09:01:00.508Z,953.2
2023-05-17T09:02:00.533Z,953
2023-05-17T09:03:00.614Z,953.6
2023-05-17T09:04:00.547Z,951.9
2023-05-17T09:05:00.650Z,953
2023-05-17T09:06:00.650Z,952.7
2023-05-17T09:07:00.513Z,953
2023-05-17T09:08:00.509Z,952.7
2023-05-17T09:09:00.540Z,953.2
2023-05-17T09:10:00.556Z,953.6
2023-05-17T09:11:00.537Z,953.6
2023-05-17T09:12:00.538Z,954.3
2023-05-17T09:13:00.568Z,953.2
2023-05-17T09:14:00.541Z,954
2023-05-17T09:15:00.540Z,954
2023-05-17T09:16:00.527Z,953.4
2023-05-17T09:17:00.552Z,954.9
2023-05-17T09:18:00.573Z,953
2023-05-17T09:19:00.693Z,954.5
2023-05-17T09:20:00.740Z,954.5
2023-05-17T09:21:00.571Z,954
2023-05-17T09:22:00.520Z,953.4
2023-05-17T09:23:00.521Z,953
2023-05-17T09:25:00.557Z,952.5
2023-05-17T09:26:00.525Z,952.7
2023-05-17T09:27:00.527Z,951.9
2023-05-17T09:28:00.534Z,952.3
2023-05-17T09:29:00.638Z,952.3
2023-05-17T09:30:00.588Z,951.9
2023-05-17T09:31:00.532Z,952.1
2023-05-17T09:32:00.538Z,951.9
2023-05-17T09:33:00.549Z,952.3
2023-05-17T09:34:00.600Z,953
2023-05-17T09:35:00.549Z,950.8
2023-05-17T09:36:00.530Z,951.4
2023-05-17T09:37:00.532Z,950.6
2023-05-17T09:38:00.543Z,952.3
2023-05-17T09:39:00.568Z,954
2023-05-17T09:40:00.577Z,953.6
2023-05-17T09:41:00.554Z,951.9
2023-05-17T09:42:00.548Z,952.7
2023-05-17T09:43:00.542Z,952.7
2023-05-17T09:44:00.546Z,953.2
2023-05-17T09:45:00.562Z,952.7
2023-05-17T09:46:00.561Z,953.2
2023-05-17T09:47:00.558Z,953.2
2023-05-17T09:48:00.598Z,953.2
2023-05-17T09:49:00.667Z,952.7
2023-05-17T09:50:00.781Z,952.7
2023-05-17T09:51:00.561Z,951.4
2023-05-17T09:52:00.557Z,951.9
2023-05-17T09:53:00.554Z,953
2023-05-17T09:54:00.584Z,953.6
2023-05-17T09:55:00.567Z,952.3
2023-05-17T09:56:00.568Z,951
2023-05-17T09:57:00.559Z,952.5
2023-05-17T09:58:00.556Z,952.7
2023-05-17T09:59:00.562Z,952.7
2023-05-17T10:00:00.580Z,951
2023-05-17T10:01:00.575Z,951.2
2023-05-17T10:02:00.603Z,950.6
2023-05-17T10:03:00.719Z,950.8
2023-05-17T10:04:00.701Z,951.9
2023-05-17T10:05:00.653Z,950.4
2023-05-17T10:06:00.593Z,950.6
2023-05-17T10:07:00.575Z,951.2
2023-05-17T10:08:00.574Z,951
2023-05-17T10:09:00.592Z,951.4
2023-05-17T10:10:00.636Z,951.9
2023-05-17T10:11:00.660Z,952.5
2023-05-17T10:12:00.649Z,953.6
2023-05-17T10:13:00.609Z,953.2
2023-05-17T10:14:00.576Z,951
2023-05-17T10:15:00.700Z,951.9
2023-05-17T10:16:00.598Z,952.7
2023-05-17T10:17:00.679Z,951.9
2023-05-17T10:18:00.681Z,951
2023-05-17T10:19:00.668Z,952.3
2023-05-17T10:20:01.099Z,952.3
2023-05-17T10:21:00.586Z,953.2
2023-05-17T10:22:14.725Z,950.6
2023-05-17T10:23:00.603Z,952.3
2023-05-17T10:24:00.587Z,951.9
2023-05-17T10:25:00.595Z,953.4
2023-05-17T10:26:00.598Z,953.6
2023-05-17T10:27:00.618Z,951.7
2023-05-17T10:28:00.602Z,951
2023-05-17T10:29:00.659Z,951.2
2023-05-17T10:30:00.624Z,951.9
2023-05-17T10:31:00.601Z,952.1
2023-05-17T10:32:00.665Z,951.2
2023-05-17T10:33:00.783Z,951
2023-05-17T10:34:00.606Z,950.6
2023-05-17T10:35:11.362Z,949.7
2023-05-17T10:36:00.622Z,951.4
2023-05-17T10:37:00.592Z,950.6
2023-05-17T10:38:00.620Z,951.9
2023-05-17T10:39:00.609Z,952.7
2023-05-17T10:40:00.605Z,951.9
2023-05-17T10:41:02.189Z,951.2
2023-05-17T10:42:13.726Z,952.1
2023-05-17T10:43:00.628Z,951.2
2023-05-17T10:44:00.626Z,952.3
2023-05-17T10:45:00.622Z,952.3
2023-05-17T10:46:00.630Z,951.9
2023-05-17T10:47:00.637Z,952.1
2023-05-17T10:48:01.382Z,951.7
2023-05-17T10:49:00.718Z,951
2023-05-17T10:50:00.606Z,951
2023-05-17T10:51:02.082Z,951.4
2023-05-17T10:52:00.619Z,951.4
2023-05-17T10:53:00.646Z,950.6
2023-05-17T10:54:00.614Z,951
2023-05-17T10:55:00.624Z,951.7
2023-05-17T10:56:00.619Z,952.1
2023-05-17T10:57:00.612Z,952.3
2023-05-17T10:58:00.618Z,952.3
2023-05-17T10:59:00.617Z,952.5
2023-05-17T11:00:00.650Z,952.1
2023-05-17T11:01:00.652Z,952.7
2023-05-17T11:02:00.655Z,952.7
2023-05-17T11:03:00.704Z,951
2023-05-17T11:04:00.634Z,950.6
2023-05-17T11:05:00.769Z,951.9
2023-05-17T11:06:00.847Z,951.4
2023-05-17T11:07:02.481Z,952.5
2023-05-17T11:08:00.618Z,952.1
2023-05-17T11:09:00.677Z,950.6
2023-05-17T11:10:00.637Z,951
2023-05-17T11:11:00.651Z,950.1
2023-05-17T11:12:00.649Z,950.8
2023-05-17T11:13:00.659Z,950.6
2023-05-17T11:14:00.628Z,951.4
2023-05-17T11:15:00.662Z,951.4
2023-05-17T11:16:00.631Z,951.2
2023-05-17T11:17:00.639Z,950.4
2023-05-17T11:18:00.685Z,950.6
2023-05-17T11:19:00.846Z,951.7
2023-05-17T11:20:00.747Z,950.6
2023-05-17T11:21:00.757Z,949
2023-05-17T11:22:00.642Z,949.5
2023-05-17T11:23:00.697Z,949
2023-05-17T11:24:00.645Z,949.7
2023-05-17T11:25:00.641Z,951
2023-05-17T11:26:09.137Z,951
2023-05-17T11:27:00.641Z,951
2023-05-17T11:28:00.642Z,951
2023-05-17T11:29:00.654Z,950.4
2023-05-17T11:30:00.650Z,950.1
2023-05-17T11:31:00.667Z,950.6
2023-05-17T11:32:00.650Z,950.1
2023-05-17T11:33:00.677Z,949.3
2023-05-17T11:34:00.680Z,949.7
2023-05-17T11:35:00.669Z,950.6
2023-05-17T11:36:00.668Z,950.8
2023-05-17T11:37:00.677Z,951.7
2023-05-17T11:38:00.662Z,950.4
2023-05-17T11:39:08.180Z,950.6
2023-05-17T11:40:00.654Z,949.5
2023-05-17T11:41:00.685Z,949.3
2023-05-17T11:42:00.671Z,949.7
2023-05-17T11:43:00.657Z,949.3
2023-05-17T11:44:00.658Z,949.3
2023-05-17T11:45:00.661Z,949.7
2023-05-17T11:46:00.666Z,949.7
2023-05-17T11:47:00.706Z,950.6
2023-05-17T11:48:00.767Z,951.4
2023-05-17T11:49:00.797Z,950.1
2023-05-17T11:50:00.709Z,949.7
2023-05-17T11:51:02.372Z,949.3
2023-05-17T11:52:00.694Z,950.1
2023-05-17T11:53:00.687Z,949
2023-05-17T11:54:00.670Z,949
2023-05-17T11:55:00.679Z,948.6
2023-05-17T11:56:00.680Z,949
2023-05-17T11:57:00.676Z,949.3
2023-05-17T11:58:00.678Z,950.6
2023-05-17T11:59:00.702Z,950.8
2023-05-17T12:00:00.681Z,948.8
2023-05-17T12:01:00.694Z,950.6
2023-05-17T12:02:00.700Z,949.3
2023-05-17T12:03:00.737Z,949
2023-05-17T12:04:00.742Z,949
2023-05-17T12:05:00.820Z,949.7
2023-05-17T12:06:00.725Z,949.7
2023-05-17T12:07:00.685Z,947.5
2023-05-17T12:08:00.737Z,948.6
2023-05-17T12:09:00.690Z,949.5
2023-05-17T12:10:00.700Z,949.5
2023-05-17T12:11:00.710Z,948.8
2023-05-17T12:12:00.714Z,949
2023-05-17T12:13:00.725Z,948.4
2023-05-17T12:14:00.718Z,948
2023-05-17T12:15:00.698Z,949.3
2023-05-17T12:16:00.701Z,949.3
2023-05-17T12:17:00.705Z,947.5
2023-05-17T12:18:00.790Z,947.1
2023-05-17T12:19:00.933Z,948
2023-05-17T12:20:00.786Z,948.2
2023-05-17T12:21:00.704Z,948
2023-05-17T12:22:00.717Z,949.5
2023-05-17T12:23:00.703Z,948.4
2023-05-17T12:24:00.745Z,948.8
2023-05-17T12:25:00.766Z,949.5
2023-05-17T12:26:00.730Z,947.5
2023-05-17T12:27:00.742Z,947.5
2023-05-17T12:28:00.845Z,948.6
2023-05-17T12:29:00.726Z,947.5
2023-05-17T12:30:00.706Z,949.5
2023-05-17T12:31:00.750Z,949.9
2023-05-17T12:32:00.733Z,948.4
2023-05-17T12:33:00.790Z,948.8
2023-05-17T12:34:00.768Z,947.5
2023-05-17T12:35:00.726Z,947.7
2023-05-17T12:36:00.740Z,947.7
2023-05-17T12:37:00.710Z,948
2023-05-17T12:38:00.739Z,945.8
2023-05-17T12:39:00.733Z,946
2023-05-17T12:40:00.723Z,946.7
2023-05-17T12:41:00.736Z,946
2023-05-17T12:42:00.738Z,947.3
2023-05-17T12:43:00.749Z,947.5
2023-05-17T12:45:00.761Z,947.5
2023-05-17T12:46:02.404Z,948
2023-05-17T12:47:00.724Z,948.8
2023-05-17T12:48:00.787Z,947.3
2023-05-17T12:49:00.776Z,946.9
2023-05-17T12:50:00.717Z,948.4
2023-05-17T12:51:00.727Z,947.1
2023-05-17T12:52:00.732Z,948
2023-05-17T12:53:00.744Z,948
2023-05-17T12:54:00.721Z,948.4
2023-05-17T12:55:00.744Z,949.3
2023-05-17T12:56:00.753Z,948.4
2023-05-17T12:57:00.741Z,948.2
2023-05-17T12:58:00.731Z,948.6
2023-05-17T12:59:00.736Z,948.2
2023-05-17T13:00:00.757Z,947.5
2023-05-17T13:01:00.746Z,948.6
2023-05-17T13:02:00.762Z,948.8